sensor_id;sensor_type;location;lat;lon;timestamp;P1;durP1;ratioP1;P2;durP2;ratioP2
59424;SDS011;45231;44.826;20.312;2023-02-28T00:01:02;39.22;;;22.17;;
59424;SDS011;45231;44.826;20.312;2023-02-28T00:03:28;38.05;;;22.30;;
59424;SDS011;45231;44.826;20.312;2023-02-28T00:05:55;37.40;;;22.23;;
59424;SDS011;45231;44.826;20.312;2023-02-28T00:08:21;31.13;;;18.00;;
59424;SDS011;45231;44.826;20.312;2023-02-28T00:10:49;40.35;;;22.88;;
59424;SDS011;45231;44.826;20.312;2023-02-28T00:13:16;39.65;;;22.85;;
59424;SDS011;45231;44.826;20.312;2023-02-28T00:15:58;40.83;;;23.60;;
59424;SDS011;45231;44.826;20.312;2023-02-28T00:18:29;39.50;;;24.45;;
59424;SDS011;45231;44.826;20.312;2023-02-28T00:21:02;38.50;;;23.30;;
59424;SDS011;45231;44.826;20.312;2023-02-28T00:23:33;37.75;;;22.92;;
59424;SDS011;45231;44.826;20.312;2023-02-28T00:26:03;40.38;;;23.05;;
59424;SDS011;45231;44.826;20.312;2023-02-28T00:28:29;29.65;;;17.35;;
59424;SDS011;45231;44.826;20.312;2023-02-28T00:30:56;38.10;;;23.02;;
59424;SDS011;45231;44.826;20.312;2023-02-28T00:33:27;46.63;;;24.73;;
59424;SDS011;45231;44.826;20.312;2023-02-28T00:36:02;43.30;;;25.42;;
59424;SDS011;45231;44.826;20.312;2023-02-28T00:38:29;43.35;;;25.27;;
59424;SDS011;45231;44.826;20.312;2023-02-28T00:40:55;40.75;;;24.63;;
59424;SDS011;45231;44.826;20.312;2023-02-28T00:43:24;41.22;;;24.88;;
59424;SDS011;45231;44.826;20.312;2023-02-28T00:45:55;44.35;;;25.30;;
59424;SDS011;45231;44.826;20.312;2023-02-28T00:48:32;43.72;;;24.83;;
59424;SDS011;45231;44.826;20.312;2023-02-28T00:50:59;42.28;;;24.52;;
59424;SDS011;45231;44.826;20.312;2023-02-28T00:53:27;37.90;;;23.48;;
59424;SDS011;45231;44.826;20.312;2023-02-28T00:55:54;44.83;;;24.38;;
59424;SDS011;45231;44.826;20.312;2023-02-28T00:58:20;41.83;;;24.63;;
59424;SDS011;45231;44.826;20.312;2023-02-28T01:00:47;42.15;;;25.23;;
59424;SDS011;45231;44.826;20.312;2023-02-28T01:03:14;40.08;;;23.23;;
59424;SDS011;45231;44.826;20.312;2023-02-28T01:05:40;40.38;;;22.63;;
59424;SDS011;45231;44.826;20.312;2023-02-28T01:08:07;44.23;;;25.73;;
59424;SDS011;45231;44.826;20.312;2023-02-28T01:10:33;46.63;;;26.20;;
59424;SDS011;45231;44.826;20.312;2023-02-28T01:13:01;50.05;;;26.08;;
59424;SDS011;45231;44.826;20.312;2023-02-28T01:15:27;46.25;;;25.75;;
59424;SDS011;45231;44.826;20.312;2023-02-28T01:17:54;45.20;;;25.43;;
59424;SDS011;45231;44.826;20.312;2023-02-28T01:20:20;42.67;;;25.13;;
59424;SDS011;45231;44.826;20.312;2023-02-28T01:22:46;43.58;;;25.45;;
59424;SDS011;45231;44.826;20.312;2023-02-28T01:25:12;42.28;;;24.75;;
59424;SDS011;45231;44.826;20.312;2023-02-28T01:27:39;43.05;;;24.38;;
59424;SDS011;45231;44.826;20.312;2023-02-28T01:30:06;40.90;;;23.53;;
59424;SDS011;45231;44.826;20.312;2023-02-28T01:32:32;42.38;;;23.25;;
59424;SDS011;45231;44.826;20.312;2023-02-28T01:34:59;37.70;;;23.40;;
59424;SDS011;45231;44.826;20.312;2023-02-28T01:37:25;41.63;;;23.13;;
59424;SDS011;45231;44.826;20.312;2023-02-28T01:40:00;42.53;;;23.77;;
59424;SDS011;45231;44.826;20.312;2023-02-28T01:42:29;43.85;;;23.73;;
59424;SDS011;45231;44.826;20.312;2023-02-28T01:47:38;48.90;;;26.30;;
59424;SDS011;45231;44.826;20.312;2023-02-28T01:50:12;50.22;;;27.27;;
59424;SDS011;45231;44.826;20.312;2023-02-28T01:52:40;52.85;;;27.63;;
59424;SDS011;45231;44.826;20.312;2023-02-28T01:55:07;58.78;;;30.48;;
59424;SDS011;45231;44.826;20.312;2023-02-28T02:00:24;64.38;;;31.23;;
59424;SDS011;45231;44.826;20.312;2023-02-28T02:02:51;61.95;;;31.48;;
59424;SDS011;45231;44.826;20.312;2023-02-28T02:05:20;55.10;;;29.02;;
59424;SDS011;45231;44.826;20.312;2023-02-28T02:07:49;52.65;;;29.40;;
59424;SDS011;45231;44.826;20.312;2023-02-28T02:10:18;51.60;;;27.35;;
59424;SDS011;45231;44.826;20.312;2023-02-28T02:15:27;61.70;;;30.92;;
59424;SDS011;45231;44.826;20.312;2023-02-28T02:17:56;61.85;;;32.58;;
59424;SDS011;45231;44.826;20.312;2023-02-28T02:37:19;46.25;;;24.88;;
59424;SDS011;45231;44.826;20.312;2023-02-28T02:39:56;40.10;;;22.98;;
59424;SDS011;45231;44.826;20.312;2023-02-28T02:42:29;42.75;;;23.70;;
59424;SDS011;45231;44.826;20.312;2023-02-28T02:45:01;43.88;;;23.45;;
59424;SDS011;45231;44.826;20.312;2023-02-28T02:47:29;42.70;;;23.70;;
59424;SDS011;45231;44.826;20.312;2023-02-28T02:49:57;39.40;;;23.17;;
59424;SDS011;45231;44.826;20.312;2023-02-28T02:52:25;38.22;;;21.33;;
59424;SDS011;45231;44.826;20.312;2023-02-28T02:54:57;37.75;;;21.63;;
59424;SDS011;45231;44.826;20.312;2023-02-28T02:57:30;39.10;;;22.00;;
59424;SDS011;45231;44.826;20.312;2023-02-28T03:00:13;39.15;;;21.40;;
59424;SDS011;45231;44.826;20.312;2023-02-28T03:02:40;40.05;;;21.58;;
59424;SDS011;45231;44.826;20.312;2023-02-28T03:05:30;41.03;;;22.73;;
59424;SDS011;45231;44.826;20.312;2023-02-28T03:07:53;36.70;;;20.65;;
59424;SDS011;45231;44.826;20.312;2023-02-28T03:16:07;35.78;;;19.98;;
59424;SDS011;45231;44.826;20.312;2023-02-28T03:18:42;32.17;;;18.65;;
59424;SDS011;45231;44.826;20.312;2023-02-28T03:23:45;34.83;;;19.10;;
59424;SDS011;45231;44.826;20.312;2023-02-28T03:26:23;35.67;;;19.35;;
59424;SDS011;45231;44.826;20.312;2023-02-28T03:28:54;33.20;;;18.88;;
59424;SDS011;45231;44.826;20.312;2023-02-28T03:31:30;37.50;;;19.38;;
59424;SDS011;45231;44.826;20.312;2023-02-28T03:34:04;33.03;;;18.52;;
59424;SDS011;45231;44.826;20.312;2023-02-28T03:36:34;32.72;;;19.10;;
59424;SDS011;45231;44.826;20.312;2023-02-28T03:39:09;37.00;;;21.38;;
59424;SDS011;45231;44.826;20.312;2023-02-28T03:44:29;33.17;;;19.40;;
59424;SDS011;45231;44.826;20.312;2023-02-28T03:47:03;33.92;;;18.92;;
59424;SDS011;45231;44.826;20.312;2023-02-28T03:49:34;35.40;;;20.13;;
59424;SDS011;45231;44.826;20.312;2023-02-28T03:52:02;38.88;;;21.23;;
59424;SDS011;45231;44.826;20.312;2023-02-28T03:54:30;39.60;;;21.10;;
59424;SDS011;45231;44.826;20.312;2023-02-28T03:57:03;40.88;;;21.50;;
59424;SDS011;45231;44.826;20.312;2023-02-28T03:59:45;39.60;;;21.88;;
59424;SDS011;45231;44.826;20.312;2023-02-28T04:02:13;42.90;;;23.17;;
59424;SDS011;45231;44.826;20.312;2023-02-28T04:04:43;42.88;;;23.35;;
59424;SDS011;45231;44.826;20.312;2023-02-28T04:07:10;38.75;;;22.30;;
59424;SDS011;45231;44.826;20.312;2023-02-28T04:09:37;45.03;;;24.50;;
59424;SDS011;45231;44.826;20.312;2023-02-28T04:12:07;37.75;;;21.88;;
59424;SDS011;45231;44.826;20.312;2023-02-28T04:14:33;45.95;;;22.25;;
59424;SDS011;45231;44.826;20.312;2023-02-28T04:16:59;39.83;;;22.42;;
59424;SDS011;45231;44.826;20.312;2023-02-28T04:19:26;38.83;;;22.48;;
59424;SDS011;45231;44.826;20.312;2023-02-28T04:21:55;40.00;;;22.42;;
59424;SDS011;45231;44.826;20.312;2023-02-28T04:24:22;37.63;;;22.00;;
59424;SDS011;45231;44.826;20.312;2023-02-28T04:26:52;43.38;;;23.23;;
59424;SDS011;45231;44.826;20.312;2023-02-28T04:29:27;40.45;;;23.10;;
59424;SDS011;45231;44.826;20.312;2023-02-28T04:31:54;40.97;;;22.73;;
59424;SDS011;45231;44.826;20.312;2023-02-28T04:34:22;42.72;;;23.80;;
59424;SDS011;45231;44.826;20.312;2023-02-28T04:36:49;41.10;;;23.10;;
59424;SDS011;45231;44.826;20.312;2023-02-28T04:39:20;42.30;;;24.60;;
59424;SDS011;45231;44.826;20.312;2023-02-28T04:41:46;44.50;;;24.90;;
59424;SDS011;45231;44.826;20.312;2023-02-28T04:44:13;43.22;;;24.67;;
59424;SDS011;45231;44.826;20.312;2023-02-28T04:46:39;45.85;;;25.15;;
59424;SDS011;45231;44.826;20.312;2023-02-28T04:49:06;44.28;;;24.13;;
59424;SDS011;45231;44.826;20.312;2023-02-28T04:51:32;46.03;;;26.02;;
59424;SDS011;45231;44.826;20.312;2023-02-28T04:53:58;45.80;;;25.63;;
59424;SDS011;45231;44.826;20.312;2023-02-28T04:56:24;47.93;;;25.87;;
59424;SDS011;45231;44.826;20.312;2023-02-28T04:58:50;47.33;;;26.57;;
59424;SDS011;45231;44.826;20.312;2023-02-28T05:03:44;48.63;;;27.13;;
59424;SDS011;45231;44.826;20.312;2023-02-28T05:06:11;55.13;;;29.98;;
59424;SDS011;45231;44.826;20.312;2023-02-28T05:08:38;51.58;;;27.30;;
59424;SDS011;45231;44.826;20.312;2023-02-28T05:11:06;53.45;;;29.52;;
59424;SDS011;45231;44.826;20.312;2023-02-28T05:13:33;58.55;;;31.20;;
59424;SDS011;45231;44.826;20.312;2023-02-28T05:18:32;52.33;;;27.73;;
59424;SDS011;45231;44.826;20.312;2023-02-28T05:20:59;53.25;;;28.00;;
59424;SDS011;45231;44.826;20.312;2023-02-28T05:23:28;52.70;;;28.92;;
59424;SDS011;45231;44.826;20.312;2023-02-28T05:25:55;57.40;;;30.85;;
59424;SDS011;45231;44.826;20.312;2023-02-28T05:28:21;56.40;;;28.88;;
59424;SDS011;45231;44.826;20.312;2023-02-28T05:30:47;52.65;;;28.30;;
59424;SDS011;45231;44.826;20.312;2023-02-28T05:33:17;56.33;;;28.98;;
59424;SDS011;45231;44.826;20.312;2023-02-28T05:35:43;59.83;;;29.83;;
59424;SDS011;45231;44.826;20.312;2023-02-28T05:38:09;60.88;;;31.33;;
59424;SDS011;45231;44.826;20.312;2023-02-28T05:40:37;56.92;;;28.65;;
59424;SDS011;45231;44.826;20.312;2023-02-28T05:43:04;60.83;;;30.80;;
59424;SDS011;45231;44.826;20.312;2023-02-28T05:45:30;60.13;;;30.80;;
59424;SDS011;45231;44.826;20.312;2023-02-28T05:47:57;60.70;;;31.07;;
59424;SDS011;45231;44.826;20.312;2023-02-28T05:50:23;60.17;;;29.65;;
59424;SDS011;45231;44.826;20.312;2023-02-28T05:52:52;55.85;;;30.20;;
59424;SDS011;45231;44.826;20.312;2023-02-28T05:55:28;55.08;;;29.10;;
59424;SDS011;45231;44.826;20.312;2023-02-28T05:57:54;60.13;;;29.30;;
59424;SDS011;45231;44.826;20.312;2023-02-28T06:00:21;56.08;;;28.38;;
59424;SDS011;45231;44.826;20.312;2023-02-28T06:02:50;57.25;;;29.40;;
59424;SDS011;45231;44.826;20.312;2023-02-28T06:05:21;59.03;;;30.83;;
59424;SDS011;45231;44.826;20.312;2023-02-28T06:07:47;58.95;;;30.38;;
59424;SDS011;45231;44.826;20.312;2023-02-28T06:10:14;59.17;;;31.35;;
59424;SDS011;45231;44.826;20.312;2023-02-28T06:12:41;57.10;;;28.20;;
59424;SDS011;45231;44.826;20.312;2023-02-28T06:15:10;56.55;;;30.02;;
59424;SDS011;45231;44.826;20.312;2023-02-28T06:17:37;58.08;;;30.38;;
59424;SDS011;45231;44.826;20.312;2023-02-28T06:20:05;53.03;;;28.75;;
59424;SDS011;45231;44.826;20.312;2023-02-28T06:22:32;60.60;;;30.40;;
59424;SDS011;45231;44.826;20.312;2023-02-28T06:25:04;56.22;;;29.63;;
59424;SDS011;45231;44.826;20.312;2023-02-28T06:27:39;52.63;;;28.95;;
59424;SDS011;45231;44.826;20.312;2023-02-28T06:30:06;49.25;;;27.58;;
59424;SDS011;45231;44.826;20.312;2023-02-28T06:32:33;49.22;;;27.88;;
59424;SDS011;45231;44.826;20.312;2023-02-28T06:35:02;52.92;;;29.33;;
59424;SDS011;45231;44.826;20.312;2023-02-28T06:37:28;51.65;;;27.00;;
59424;SDS011;45231;44.826;20.312;2023-02-28T06:39:54;50.38;;;28.02;;
59424;SDS011;45231;44.826;20.312;2023-02-28T06:42:21;54.90;;;29.77;;
59424;SDS011;45231;44.826;20.312;2023-02-28T06:44:51;51.33;;;27.63;;
59424;SDS011;45231;44.826;20.312;2023-02-28T06:47:17;58.17;;;29.27;;
59424;SDS011;45231;44.826;20.312;2023-02-28T06:49:43;52.53;;;27.97;;
59424;SDS011;45231;44.826;20.312;2023-02-28T06:52:10;42.55;;;22.15;;
59424;SDS011;45231;44.826;20.312;2023-02-28T06:54:37;50.70;;;28.00;;
59424;SDS011;45231;44.826;20.312;2023-02-28T06:57:05;49.10;;;27.17;;
59424;SDS011;45231;44.826;20.312;2023-02-28T06:59:32;47.58;;;25.60;;
59424;SDS011;45231;44.826;20.312;2023-02-28T07:01:58;49.72;;;26.83;;
59424;SDS011;45231;44.826;20.312;2023-02-28T07:04:25;42.60;;;24.38;;
59424;SDS011;45231;44.826;20.312;2023-02-28T07:06:51;49.67;;;29.23;;
59424;SDS011;45231;44.826;20.312;2023-02-28T07:09:17;45.70;;;25.40;;
59424;SDS011;45231;44.826;20.312;2023-02-28T07:11:44;51.15;;;27.40;;
59424;SDS011;45231;44.826;20.312;2023-02-28T07:14:10;45.00;;;25.13;;
59424;SDS011;45231;44.826;20.312;2023-02-28T07:16:37;38.33;;;22.93;;
59424;SDS011;45231;44.826;20.312;2023-02-28T07:19:10;42.33;;;23.08;;
59424;SDS011;45231;44.826;20.312;2023-02-28T07:21:36;44.85;;;24.80;;
59424;SDS011;45231;44.826;20.312;2023-02-28T07:24:05;43.20;;;24.23;;
59424;SDS011;45231;44.826;20.312;2023-02-28T07:26:32;47.70;;;24.30;;
59424;SDS011;45231;44.826;20.312;2023-02-28T07:31:25;61.70;;;34.75;;
59424;SDS011;45231;44.826;20.312;2023-02-28T07:33:51;56.60;;;31.43;;
59424;SDS011;45231;44.826;20.312;2023-02-28T07:36:19;56.85;;;30.60;;
59424;SDS011;45231;44.826;20.312;2023-02-28T07:38:46;46.05;;;25.25;;
59424;SDS011;45231;44.826;20.312;2023-02-28T07:41:15;38.05;;;22.00;;
59424;SDS011;45231;44.826;20.312;2023-02-28T07:46:10;43.63;;;24.00;;
59424;SDS011;45231;44.826;20.312;2023-02-28T07:48:36;44.55;;;25.05;;
59424;SDS011;45231;44.826;20.312;2023-02-28T07:51:03;40.03;;;22.50;;
59424;SDS011;45231;44.826;20.312;2023-02-28T07:53:29;44.73;;;24.97;;
59424;SDS011;45231;44.826;20.312;2023-02-28T07:55:56;36.78;;;22.02;;
59424;SDS011;45231;44.826;20.312;2023-02-28T07:58:23;36.47;;;21.13;;
59424;SDS011;45231;44.826;20.312;2023-02-28T08:00:49;39.38;;;21.80;;
59424;SDS011;45231;44.826;20.312;2023-02-28T08:03:17;36.90;;;22.02;;
59424;SDS011;45231;44.826;20.312;2023-02-28T08:05:43;35.40;;;20.08;;
59424;SDS011;45231;44.826;20.312;2023-02-28T08:08:09;32.72;;;19.15;;
59424;SDS011;45231;44.826;20.312;2023-02-28T08:10:36;33.07;;;20.23;;
59424;SDS011;45231;44.826;20.312;2023-02-28T08:13:02;40.90;;;23.02;;
59424;SDS011;45231;44.826;20.312;2023-02-28T08:15:28;33.65;;;20.10;;
59424;SDS011;45231;44.826;20.312;2023-02-28T08:17:55;34.33;;;20.70;;
59424;SDS011;45231;44.826;20.312;2023-02-28T08:20:21;31.02;;;18.85;;
59424;SDS011;45231;44.826;20.312;2023-02-28T08:22:47;31.23;;;18.98;;
59424;SDS011;45231;44.826;20.312;2023-02-28T08:25:14;33.50;;;20.50;;
59424;SDS011;45231;44.826;20.312;2023-02-28T08:27:40;28.63;;;17.35;;
59424;SDS011;45231;44.826;20.312;2023-02-28T08:30:07;32.33;;;20.42;;
59424;SDS011;45231;44.826;20.312;2023-02-28T08:32:33;37.47;;;21.92;;
59424;SDS011;45231;44.826;20.312;2023-02-28T08:35:00;42.20;;;23.58;;
59424;SDS011;45231;44.826;20.312;2023-02-28T08:37:28;36.15;;;22.60;;
59424;SDS011;45231;44.826;20.312;2023-02-28T08:39:54;36.53;;;22.55;;
59424;SDS011;45231;44.826;20.312;2023-02-28T08:42:20;37.25;;;21.88;;
59424;SDS011;45231;44.826;20.312;2023-02-28T08:44:47;36.30;;;23.27;;
59424;SDS011;45231;44.826;20.312;2023-02-28T08:47:13;36.33;;;22.53;;
59424;SDS011;45231;44.826;20.312;2023-02-28T08:49:39;35.93;;;22.53;;
59424;SDS011;45231;44.826;20.312;2023-02-28T08:52:05;35.23;;;20.80;;
59424;SDS011;45231;44.826;20.312;2023-02-28T08:54:31;43.17;;;24.87;;
59424;SDS011;45231;44.826;20.312;2023-02-28T08:56:59;40.55;;;22.08;;
59424;SDS011;45231;44.826;20.312;2023-02-28T08:59:30;49.07;;;26.17;;
59424;SDS011;45231;44.826;20.312;2023-02-28T09:01:57;40.63;;;22.88;;
59424;SDS011;45231;44.826;20.312;2023-02-28T09:04:23;31.60;;;19.90;;
59424;SDS011;45231;44.826;20.312;2023-02-28T09:06:49;36.93;;;22.33;;
59424;SDS011;45231;44.826;20.312;2023-02-28T09:09:16;34.35;;;21.77;;
59424;SDS011;45231;44.826;20.312;2023-02-28T09:11:42;34.35;;;22.00;;
59424;SDS011;45231;44.826;20.312;2023-02-28T09:14:11;34.53;;;22.03;;
59424;SDS011;45231;44.826;20.312;2023-02-28T09:16:37;35.40;;;22.15;;
59424;SDS011;45231;44.826;20.312;2023-02-28T09:19:04;41.28;;;23.65;;
59424;SDS011;45231;44.826;20.312;2023-02-28T09:21:30;39.33;;;22.70;;
59424;SDS011;45231;44.826;20.312;2023-02-28T09:23:56;38.88;;;23.80;;
59424;SDS011;45231;44.826;20.312;2023-02-28T09:26:24;41.53;;;25.30;;
59424;SDS011;45231;44.826;20.312;2023-02-28T09:28:57;33.85;;;20.75;;
59424;SDS011;45231;44.826;20.312;2023-02-28T09:31:27;30.17;;;19.27;;
59424;SDS011;45231;44.826;20.312;2023-02-28T09:33:54;33.97;;;21.88;;
59424;SDS011;45231;44.826;20.312;2023-02-28T09:36:22;37.28;;;22.63;;
59424;SDS011;45231;44.826;20.312;2023-02-28T09:41:21;27.13;;;16.27;;
59424;SDS011;45231;44.826;20.312;2023-02-28T09:43:49;27.90;;;17.95;;
59424;SDS011;45231;44.826;20.312;2023-02-28T09:48:45;28.08;;;18.67;;
59424;SDS011;45231;44.826;20.312;2023-02-28T09:51:15;29.10;;;19.20;;
59424;SDS011;45231;44.826;20.312;2023-02-28T09:53:55;30.80;;;19.80;;
59424;SDS011;45231;44.826;20.312;2023-02-28T09:56:24;41.88;;;23.95;;
59424;SDS011;45231;44.826;20.312;2023-02-28T10:01:37;32.53;;;20.42;;
59424;SDS011;45231;44.826;20.312;2023-02-28T10:06:53;33.67;;;21.60;;
59424;SDS011;45231;44.826;20.312;2023-02-28T10:09:25;32.55;;;21.25;;
59424;SDS011;45231;44.826;20.312;2023-02-28T10:11:53;35.35;;;20.65;;
59424;SDS011;45231;44.826;20.312;2023-02-28T10:14:23;34.85;;;21.30;;
59424;SDS011;45231;44.826;20.312;2023-02-28T10:16:50;34.10;;;22.52;;
59424;SDS011;45231;44.826;20.312;2023-02-28T10:19:35;34.03;;;21.75;;
59424;SDS011;45231;44.826;20.312;2023-02-28T10:22:10;37.35;;;22.23;;
59424;SDS011;45231;44.826;20.312;2023-02-28T10:24:48;34.65;;;22.33;;
59424;SDS011;45231;44.826;20.312;2023-02-28T10:27:17;34.55;;;22.27;;
59424;SDS011;45231;44.826;20.312;2023-02-28T10:29:47;35.40;;;23.17;;
59424;SDS011;45231;44.826;20.312;2023-02-28T10:32:14;35.72;;;23.35;;
59424;SDS011;45231;44.826;20.312;2023-02-28T10:34:41;34.88;;;22.33;;
59424;SDS011;45231;44.826;20.312;2023-02-28T10:37:08;34.70;;;22.77;;
59424;SDS011;45231;44.826;20.312;2023-02-28T10:39:35;38.05;;;24.23;;
59424;SDS011;45231;44.826;20.312;2023-02-28T10:42:02;37.30;;;24.00;;
59424;SDS011;45231;44.826;20.312;2023-02-28T10:44:29;34.88;;;22.55;;
59424;SDS011;45231;44.826;20.312;2023-02-28T10:46:55;38.23;;;22.10;;
59424;SDS011;45231;44.826;20.312;2023-02-28T10:49:23;37.30;;;23.05;;
59424;SDS011;45231;44.826;20.312;2023-02-28T10:51:54;37.13;;;23.40;;
59424;SDS011;45231;44.826;20.312;2023-02-28T10:54:29;36.08;;;22.95;;
59424;SDS011;45231;44.826;20.312;2023-02-28T10:59:35;33.95;;;23.02;;
59424;SDS011;45231;44.826;20.312;2023-02-28T11:02:08;35.67;;;22.45;;
59424;SDS011;45231;44.826;20.312;2023-02-28T11:04:48;34.30;;;21.73;;
59424;SDS011;45231;44.826;20.312;2023-02-28T11:07:21;36.20;;;23.33;;
59424;SDS011;45231;44.826;20.312;2023-02-28T11:09:48;37.60;;;24.38;;
59424;SDS011;45231;44.826;20.312;2023-02-28T11:20:35;33.38;;;22.15;;
59424;SDS011;45231;44.826;20.312;2023-02-28T11:23:11;35.42;;;22.92;;
59424;SDS011;45231;44.826;20.312;2023-02-28T11:25:38;37.30;;;23.27;;
59424;SDS011;45231;44.826;20.312;2023-02-28T11:28:05;35.13;;;22.73;;
59424;SDS011;45231;44.826;20.312;2023-02-28T11:33:18;36.35;;;24.05;;
59424;SDS011;45231;44.826;20.312;2023-02-28T11:35:55;34.80;;;22.10;;
59424;SDS011;45231;44.826;20.312;2023-02-28T11:38:23;35.28;;;23.75;;
59424;SDS011;45231;44.826;20.312;2023-02-28T12:04:20;34.50;;;22.83;;
59424;SDS011;45231;44.826;20.312;2023-02-28T12:06:54;38.00;;;24.48;;
59424;SDS011;45231;44.826;20.312;2023-02-28T12:19:42;27.48;;;19.58;;
59424;SDS011;45231;44.826;20.312;2023-02-28T12:22:27;31.83;;;20.88;;
59424;SDS011;45231;44.826;20.312;2023-02-28T12:27:37;25.77;;;17.67;;
59424;SDS011;45231;44.826;20.312;2023-02-28T12:30:08;28.23;;;18.65;;
59424;SDS011;45231;44.826;20.312;2023-02-28T12:32:44;29.02;;;19.13;;
59424;SDS011;45231;44.826;20.312;2023-02-28T12:35:11;30.50;;;20.00;;
59424;SDS011;45231;44.826;20.312;2023-02-28T12:38:12;36.58;;;21.63;;
59424;SDS011;45231;44.826;20.312;2023-02-28T12:40:50;35.13;;;22.38;;
59424;SDS011;45231;44.826;20.312;2023-02-28T12:43:19;33.95;;;21.90;;
59424;SDS011;45231;44.826;20.312;2023-02-28T12:45:50;33.30;;;21.48;;
59424;SDS011;45231;44.826;20.312;2023-02-28T12:48:40;31.90;;;21.35;;
59424;SDS011;45231;44.826;20.312;2023-02-28T12:51:06;30.92;;;19.92;;
59424;SDS011;45231;44.826;20.312;2023-02-28T12:53:50;32.22;;;20.50;;
59424;SDS011;45231;44.826;20.312;2023-02-28T12:59:05;36.00;;;22.73;;
59424;SDS011;45231;44.826;20.312;2023-02-28T13:11:55;32.22;;;21.23;;
59424;SDS011;45231;44.826;20.312;2023-02-28T13:14:23;33.45;;;21.13;;
59424;SDS011;45231;44.826;20.312;2023-02-28T13:16:57;32.25;;;20.92;;
59424;SDS011;45231;44.826;20.312;2023-02-28T13:22:51;29.60;;;19.63;;
59424;SDS011;45231;44.826;20.312;2023-02-28T13:24:52;25.95;;;17.52;;
59424;SDS011;45231;44.826;20.312;2023-02-28T13:27:24;28.25;;;18.52;;
59424;SDS011;45231;44.826;20.312;2023-02-28T13:29:57;33.38;;;20.98;;
59424;SDS011;45231;44.826;20.312;2023-02-28T13:32:31;44.15;;;26.30;;
59424;SDS011;45231;44.826;20.312;2023-02-28T13:42:34;31.25;;;21.25;;
59424;SDS011;45231;44.826;20.312;2023-02-28T13:50:13;31.45;;;20.80;;
59424;SDS011;45231;44.826;20.312;2023-02-28T13:52:45;32.90;;;20.08;;
59424;SDS011;45231;44.826;20.312;2023-02-28T13:55:31;37.08;;;22.90;;
59424;SDS011;45231;44.826;20.312;2023-02-28T14:00:37;31.77;;;19.92;;
59424;SDS011;45231;44.826;20.312;2023-02-28T14:03:26;32.50;;;19.90;;
59424;SDS011;45231;44.826;20.312;2023-02-28T14:06:08;30.00;;;19.40;;
59424;SDS011;45231;44.826;20.312;2023-02-28T14:08:34;31.95;;;19.50;;
59424;SDS011;45231;44.826;20.312;2023-02-28T14:11:06;28.50;;;18.17;;
59424;SDS011;45231;44.826;20.312;2023-02-28T14:13:45;29.08;;;18.02;;
59424;SDS011;45231;44.826;20.312;2023-02-28T14:16:22;30.65;;;19.10;;
59424;SDS011;45231;44.826;20.312;2023-02-28T14:19:11;29.70;;;19.58;;
59424;SDS011;45231;44.826;20.312;2023-02-28T14:21:36;30.23;;;17.23;;
59424;SDS011;45231;44.826;20.312;2023-02-28T14:37:37;27.83;;;17.80;;
59424;SDS011;45231;44.826;20.312;2023-02-28T14:42:31;28.15;;;17.08;;
59424;SDS011;45231;44.826;20.312;2023-02-28T14:44:58;30.83;;;19.35;;
59424;SDS011;45231;44.826;20.312;2023-02-28T14:47:26;28.50;;;17.98;;
59424;SDS011;45231;44.826;20.312;2023-02-28T14:49:57;31.83;;;20.65;;
59424;SDS011;45231;44.826;20.312;2023-02-28T14:52:25;31.95;;;20.60;;
59424;SDS011;45231;44.826;20.312;2023-02-28T14:54:54;32.88;;;21.38;;
59424;SDS011;45231;44.826;20.312;2023-02-28T14:57:27;29.73;;;19.35;;
59424;SDS011;45231;44.826;20.312;2023-02-28T15:00:07;30.67;;;19.25;;
59424;SDS011;45231;44.826;20.312;2023-02-28T15:02:37;30.48;;;18.58;;
59424;SDS011;45231;44.826;20.312;2023-02-28T15:07:46;25.60;;;15.63;;
59424;SDS011;45231;44.826;20.312;2023-02-28T15:12:45;26.30;;;17.13;;
59424;SDS011;45231;44.826;20.312;2023-02-28T15:15:14;29.90;;;18.35;;
59424;SDS011;45231;44.826;20.312;2023-02-28T15:17:42;30.55;;;18.63;;
59424;SDS011;45231;44.826;20.312;2023-02-28T15:20:13;28.77;;;17.58;;
59424;SDS011;45231;44.826;20.312;2023-02-28T15:22:42;34.00;;;19.95;;
59424;SDS011;45231;44.826;20.312;2023-02-28T15:25:09;29.85;;;19.35;;
59424;SDS011;45231;44.826;20.312;2023-02-28T15:27:45;30.83;;;20.15;;
59424;SDS011;45231;44.826;20.312;2023-02-28T15:30:14;33.78;;;18.80;;
59424;SDS011;45231;44.826;20.312;2023-02-28T15:32:41;32.22;;;19.58;;
59424;SDS011;45231;44.826;20.312;2023-02-28T15:35:19;33.50;;;20.02;;
59424;SDS011;45231;44.826;20.312;2023-02-28T15:37:46;30.90;;;19.88;;
59424;SDS011;45231;44.826;20.312;2023-02-28T15:40:35;29.60;;;19.45;;
59424;SDS011;45231;44.826;20.312;2023-02-28T15:43:16;29.33;;;18.50;;
59424;SDS011;45231;44.826;20.312;2023-02-28T15:45:49;34.78;;;19.75;;
59424;SDS011;45231;44.826;20.312;2023-02-28T15:50:43;35.08;;;20.60;;
59424;SDS011;45231;44.826;20.312;2023-02-28T15:53:16;35.47;;;21.15;;
59424;SDS011;45231;44.826;20.312;2023-02-28T15:55:51;34.55;;;21.30;;
59424;SDS011;45231;44.826;20.312;2023-02-28T15:58:19;32.85;;;20.15;;
59424;SDS011;45231;44.826;20.312;2023-02-28T16:01:00;37.85;;;22.17;;
59424;SDS011;45231;44.826;20.312;2023-02-28T16:03:27;35.92;;;22.25;;
59424;SDS011;45231;44.826;20.312;2023-02-28T16:08:42;35.53;;;21.20;;
59424;SDS011;45231;44.826;20.312;2023-02-28T16:11:09;37.97;;;23.73;;
59424;SDS011;45231;44.826;20.312;2023-02-28T16:13:36;35.97;;;22.67;;
59424;SDS011;45231;44.826;20.312;2023-02-28T16:16:02;36.75;;;21.58;;
59424;SDS011;45231;44.826;20.312;2023-02-28T16:18:49;30.35;;;19.13;;
59424;SDS011;45231;44.826;20.312;2023-02-28T16:21:16;27.00;;;17.50;;
59424;SDS011;45231;44.826;20.312;2023-02-28T16:23:42;30.73;;;18.40;;
59424;SDS011;45231;44.826;20.312;2023-02-28T16:26:12;30.65;;;18.83;;
59424;SDS011;45231;44.826;20.312;2023-02-28T16:28:41;31.58;;;19.35;;
59424;SDS011;45231;44.826;20.312;2023-02-28T16:31:09;36.30;;;22.33;;
59424;SDS011;45231;44.826;20.312;2023-02-28T16:33:41;39.20;;;23.55;;
59424;SDS011;45231;44.826;20.312;2023-02-28T16:36:19;36.47;;;22.83;;
59424;SDS011;45231;44.826;20.312;2023-02-28T16:38:49;35.00;;;21.88;;
59424;SDS011;45231;44.826;20.312;2023-02-28T16:41:25;39.53;;;24.05;;
59424;SDS011;45231;44.826;20.312;2023-02-28T16:43:55;38.15;;;23.00;;
59424;SDS011;45231;44.826;20.312;2023-02-28T16:46:27;35.78;;;22.27;;
59424;SDS011;45231;44.826;20.312;2023-02-28T16:48:56;38.05;;;23.20;;
59424;SDS011;45231;44.826;20.312;2023-02-28T16:51:23;37.63;;;22.42;;
59424;SDS011;45231;44.826;20.312;2023-02-28T16:53:49;40.45;;;23.65;;
59424;SDS011;45231;44.826;20.312;2023-02-28T16:56:20;34.95;;;22.30;;
59424;SDS011;45231;44.826;20.312;2023-02-28T16:58:47;35.28;;;21.73;;
59424;SDS011;45231;44.826;20.312;2023-02-28T17:01:19;42.85;;;25.05;;
59424;SDS011;45231;44.826;20.312;2023-02-28T17:04:01;37.90;;;23.20;;
59424;SDS011;45231;44.826;20.312;2023-02-28T17:06:28;38.50;;;22.52;;